Mcleod Lake, Canada
Current Conditions -  °F | °C
As of 1:00 AM on Wednesday 22 Oct 2014 (Local Time) from CYZY Reporting Station
Light Rain Light Rain  
Wind Chill: 43°   Ceiling: 4200
Heat Index: 48°   Visibility: 9mi
Dew Point: 43°   Wind: 12mph
Humidity: 82%   Direction: 150°SSE
Pressure: 29.47"   Gusts: NA
Location:  55°N, 123.03°W
Report Text: CYZY 220800Z AUTO 15010KT 9SM -RA BKN042 OVC055 09/06 A2947 RMK SLP995 DENSITY ALT 2500FT
Loading
Personal Weather Stations






























Interactive Weather Map
Tropical Storm Tracking
New forecast layout! Learn more

10-Day Weather Forecast

Advertisements
Track Severe Weather on mobile